BAW8648 LKPR-LOWW
Flight info
| Callsign | BAW8648 |
|---|---|
| Flight time | 0h 38m |
| Altitude | 17000 |
| Route | VOZ5M VOZ DCT LANUX LANUX7W |
| Aircraft | A21N/M-SDE3FGIJ1LRWXYZ/SB1G1 |
Departure
| Time | 2026-04-24 00:24 |
|---|---|
| Airport | Václav Havel Airport Prague (LKPR) |
Arrival
| Time | 2026-04-24 01:02 |
|---|---|
| Airport | Vienna International Airport (LOWW) |
| Time | Latitude | Longitude | Altitude | Speed | Heading |
|---|---|---|---|---|---|
| 2026-04-23 23:44 | 50.11026 | 14.26770 | 1176 ft | 0 kts | 65° |
| 2026-04-24 00:11 | 50.11020 | 14.26750 | 1178 ft | 4 kts | 65° |
| 2026-04-24 00:12 | 50.11007 | 14.26716 | 1174 ft | 4 kts | 35° |
| 2026-04-24 00:12 | 50.10996 | 14.26711 | 1178 ft | 3 kts | 328° |
| 2026-04-24 00:12 | 50.11011 | 14.26697 | 1176 ft | 4 kts | 328° |
| 2026-04-24 00:12 | 50.11032 | 14.26676 | 1178 ft | 2 kts | 327° |
| 2026-04-24 00:13 | 50.11033 | 14.26675 | 1179 ft | 2 kts | 327° |
| 2026-04-24 00:16 | 50.11033 | 14.26674 | 1179 ft | 0 kts | 327° |
| 2026-04-24 00:16 | 50.11044 | 14.26664 | 1179 ft | 3 kts | 327° |
| 2026-04-24 00:16 | 50.11070 | 14.26629 | 1176 ft | 7 kts | 303° |
| 2026-04-24 00:16 | 50.11067 | 14.26547 | 1177 ft | 9 kts | 238° |
| 2026-04-24 00:17 | 50.11012 | 14.26476 | 1183 ft | 12 kts | 214° |
| 2026-04-24 00:17 | 50.10938 | 14.26400 | 1178 ft | 14 kts | 213° |
| 2026-04-24 00:17 | 50.10854 | 14.26309 | 1179 ft | 16 kts | 214° |
| 2026-04-24 00:17 | 50.10758 | 14.26207 | 1176 ft | 17 kts | 214° |
| 2026-04-24 00:18 | 50.10671 | 14.26115 | 1176 ft | 12 kts | 214° |
| 2026-04-24 00:18 | 50.10597 | 14.26041 | 1176 ft | 12 kts | 209° |
| 2026-04-24 00:18 | 50.10537 | 14.25981 | 1177 ft | 9 kts | 207° |
| 2026-04-24 00:18 | 50.10478 | 14.26020 | 1180 ft | 12 kts | 127° |
| 2026-04-24 00:19 | 50.10425 | 14.26131 | 1181 ft | 14 kts | 127° |
| 2026-04-24 00:19 | 50.10361 | 14.26264 | 1182 ft | 16 kts | 127° |
| 2026-04-24 00:19 | 50.10289 | 14.26411 | 1182 ft | 18 kts | 127° |
| 2026-04-24 00:19 | 50.10209 | 14.26579 | 1183 ft | 20 kts | 127° |
| 2026-04-24 00:20 | 50.10119 | 14.26763 | 1188 ft | 23 kts | 127° |
| 2026-04-24 00:20 | 50.10020 | 14.26969 | 1200 ft | 25 kts | 127° |
| 2026-04-24 00:20 | 50.09921 | 14.27174 | 1206 ft | 22 kts | 127° |
| 2026-04-24 00:20 | 50.09839 | 14.27334 | 1208 ft | 16 kts | 136° |
| 2026-04-24 00:21 | 50.09752 | 14.27466 | 1211 ft | 19 kts | 135° |
| 2026-04-24 00:21 | 50.09655 | 14.27616 | 1213 ft | 21 kts | 135° |
| 2026-04-24 00:21 | 50.09547 | 14.27783 | 1217 ft | 23 kts | 135° |
| 2026-04-24 00:21 | 50.09428 | 14.27965 | 1221 ft | 25 kts | 135° |
| 2026-04-24 00:22 | 50.09309 | 14.28148 | 1220 ft | 18 kts | 135° |
| 2026-04-24 00:22 | 50.09227 | 14.28267 | 1217 ft | 14 kts | 147° |
| 2026-04-24 00:22 | 50.09132 | 14.28249 | 1217 ft | 16 kts | 220° |
| 2026-04-24 00:22 | 50.09087 | 14.28097 | 1214 ft | 17 kts | 286° |
| 2026-04-24 00:23 | 50.09158 | 14.27933 | 1217 ft | 22 kts | 307° |
| 2026-04-24 00:23 | 50.09375 | 14.27483 | 1215 ft | 85 kts | 307° |
| 2026-04-24 00:23 | 50.09851 | 14.26498 | 1210 ft | 138 kts | 307° |
| 2026-04-24 00:23 | 50.10507 | 14.25146 | 1215 ft | 173 kts | 307° |
| 2026-04-24 00:24 | 50.11209 | 14.23690 | 1844 ft | 164 kts | 305° |
| 2026-04-24 00:24 | 50.11886 | 14.22275 | 2474 ft | 163 kts | 305° |
| 2026-04-24 00:24 | 50.12578 | 14.20821 | 2968 ft | 173 kts | 304° |
| 2026-04-24 00:24 | 50.13331 | 14.19254 | 3544 ft | 188 kts | 306° |
| 2026-04-24 00:25 | 50.14182 | 14.17506 | 3952 ft | 218 kts | 307° |
| 2026-04-24 00:25 | 50.15149 | 14.15507 | 4457 ft | 241 kts | 308° |
| 2026-04-24 00:25 | 50.16177 | 14.13376 | 5234 ft | 249 kts | 308° |
| 2026-04-24 00:25 | 50.17216 | 14.11174 | 6130 ft | 254 kts | 305° |
| 2026-04-24 00:26 | 50.17946 | 14.08630 | 6997 ft | 263 kts | 285° |
| 2026-04-24 00:26 | 50.17959 | 14.05736 | 7860 ft | 275 kts | 262° |
| 2026-04-24 00:26 | 50.17154 | 14.03021 | 8725 ft | 288 kts | 236° |
| 2026-04-24 00:26 | 50.15646 | 14.00884 | 9593 ft | 298 kts | 219° |
| 2026-04-24 00:27 | 50.13834 | 13.99238 | 10429 ft | 308 kts | 205° |
| 2026-04-24 00:27 | 50.11671 | 13.98479 | 10852 ft | 333 kts | 186° |
| 2026-04-24 00:27 | 50.09281 | 13.98734 | 11195 ft | 357 kts | 166° |
| 2026-04-24 00:27 | 50.06938 | 14.00325 | 11518 ft | 378 kts | 146° |
| 2026-04-24 00:28 | 50.04951 | 14.03084 | 12099 ft | 387 kts | 132° |
| 2026-04-24 00:28 | 50.03087 | 14.06146 | 12846 ft | 392 kts | 132° |
| 2026-04-24 00:28 | 50.01197 | 14.09239 | 13608 ft | 396 kts | 132° |
| 2026-04-24 00:28 | 49.99323 | 14.12320 | 14323 ft | 400 kts | 131° |
| 2026-04-24 00:29 | 49.97407 | 14.15487 | 15045 ft | 404 kts | 130° |
| 2026-04-24 00:29 | 49.95467 | 14.18680 | 15719 ft | 408 kts | 130° |
| 2026-04-24 00:29 | 49.93507 | 14.21903 | 16376 ft | 412 kts | 130° |
| 2026-04-24 00:29 | 49.91524 | 14.25166 | 16928 ft | 418 kts | 130° |
| 2026-04-24 00:30 | 49.89529 | 14.28452 | 17169 ft | 416 kts | 129° |
| 2026-04-24 00:30 | 49.87587 | 14.31634 | 17205 ft | 401 kts | 129° |
| 2026-04-24 00:30 | 49.85665 | 14.34782 | 17202 ft | 401 kts | 129° |
| 2026-04-24 00:30 | 49.83749 | 14.37911 | 17196 ft | 400 kts | 129° |
| 2026-04-24 00:31 | 49.81836 | 14.41050 | 17193 ft | 401 kts | 129° |
| 2026-04-24 00:31 | 49.79921 | 14.44197 | 17193 ft | 401 kts | 129° |
| 2026-04-24 00:31 | 49.78001 | 14.47340 | 17191 ft | 401 kts | 129° |
| 2026-04-24 00:31 | 49.76080 | 14.50480 | 17192 ft | 402 kts | 129° |
| 2026-04-24 00:32 | 49.74158 | 14.53611 | 17192 ft | 401 kts | 129° |
| 2026-04-24 00:32 | 49.72236 | 14.56738 | 17186 ft | 401 kts | 129° |
| 2026-04-24 00:32 | 49.70310 | 14.59864 | 17181 ft | 401 kts | 129° |
| 2026-04-24 00:32 | 49.68386 | 14.62984 | 17181 ft | 401 kts | 129° |
| 2026-04-24 00:33 | 49.66466 | 14.66097 | 17175 ft | 400 kts | 129° |
| 2026-04-24 00:33 | 49.64550 | 14.69200 | 17171 ft | 400 kts | 129° |
| 2026-04-24 00:33 | 49.62630 | 14.72305 | 17177 ft | 400 kts | 129° |
| 2026-04-24 00:33 | 49.60711 | 14.75408 | 17174 ft | 400 kts | 129° |
| 2026-04-24 00:34 | 49.58790 | 14.78509 | 17178 ft | 400 kts | 129° |
| 2026-04-24 00:34 | 49.56865 | 14.81609 | 17180 ft | 400 kts | 129° |
| 2026-04-24 00:34 | 49.54942 | 14.84702 | 17182 ft | 400 kts | 129° |
| 2026-04-24 00:34 | 49.52983 | 14.87693 | 17178 ft | 403 kts | 135° |
| 2026-04-24 00:35 | 49.50779 | 14.90383 | 17180 ft | 404 kts | 139° |
| 2026-04-24 00:35 | 49.48528 | 14.92994 | 17179 ft | 405 kts | 140° |
| 2026-04-24 00:35 | 49.46279 | 14.95593 | 17180 ft | 405 kts | 140° |
| 2026-04-24 00:35 | 49.44034 | 14.98193 | 17179 ft | 403 kts | 139° |
| 2026-04-24 00:36 | 49.41794 | 15.00792 | 17180 ft | 403 kts | 139° |
| 2026-04-24 00:36 | 49.39556 | 15.03389 | 17182 ft | 403 kts | 139° |
| 2026-04-24 00:36 | 49.37319 | 15.05986 | 17181 ft | 404 kts | 139° |
| 2026-04-24 00:36 | 49.35080 | 15.08581 | 17179 ft | 404 kts | 139° |
| 2026-04-24 00:37 | 49.32836 | 15.11180 | 17180 ft | 404 kts | 139° |
| 2026-04-24 00:37 | 49.30592 | 15.13777 | 17180 ft | 404 kts | 139° |
| 2026-04-24 00:37 | 49.28350 | 15.16369 | 17180 ft | 404 kts | 140° |
| 2026-04-24 00:37 | 49.26108 | 15.18957 | 17177 ft | 404 kts | 140° |
| 2026-04-24 00:38 | 49.23894 | 15.21509 | 17173 ft | 404 kts | 140° |
| 2026-04-24 00:38 | 49.21644 | 15.24098 | 17169 ft | 403 kts | 140° |
| 2026-04-24 00:38 | 49.19403 | 15.26675 | 17167 ft | 403 kts | 140° |
| 2026-04-24 00:38 | 49.17162 | 15.29251 | 17170 ft | 403 kts | 140° |
| 2026-04-24 00:39 | 49.14922 | 15.31823 | 17169 ft | 403 kts | 140° |
| 2026-04-24 00:39 | 49.12681 | 15.34390 | 17171 ft | 402 kts | 140° |
| 2026-04-24 00:39 | 49.10435 | 15.36960 | 17176 ft | 402 kts | 140° |
| 2026-04-24 00:39 | 49.08194 | 15.39523 | 17172 ft | 402 kts | 140° |
| 2026-04-24 00:40 | 49.05955 | 15.42080 | 17170 ft | 402 kts | 140° |
| 2026-04-24 00:40 | 49.03711 | 15.44637 | 17166 ft | 402 kts | 140° |
| 2026-04-24 00:40 | 49.01497 | 15.47161 | 17170 ft | 402 kts | 140° |
| 2026-04-24 00:40 | 48.99256 | 15.49710 | 17169 ft | 402 kts | 140° |
| 2026-04-24 00:41 | 48.97015 | 15.52258 | 17168 ft | 403 kts | 140° |
| 2026-04-24 00:41 | 48.94765 | 15.54812 | 17173 ft | 403 kts | 140° |
| 2026-04-24 00:41 | 48.92518 | 15.57359 | 17171 ft | 403 kts | 140° |
| 2026-04-24 00:41 | 48.90270 | 15.59906 | 17171 ft | 403 kts | 140° |
| 2026-04-24 00:42 | 48.88040 | 15.62488 | 17173 ft | 402 kts | 138° |
| 2026-04-24 00:42 | 48.85845 | 15.65113 | 17173 ft | 402 kts | 138° |
| 2026-04-24 00:42 | 48.83649 | 15.67753 | 17171 ft | 402 kts | 138° |
| 2026-04-24 00:42 | 48.81449 | 15.70390 | 17172 ft | 404 kts | 138° |
| 2026-04-24 00:43 | 48.79242 | 15.73033 | 17170 ft | 404 kts | 138° |
| 2026-04-24 00:43 | 48.77040 | 15.75666 | 17170 ft | 403 kts | 138° |
| 2026-04-24 00:43 | 48.74835 | 15.78297 | 17167 ft | 403 kts | 138° |
| 2026-04-24 00:43 | 48.72632 | 15.80923 | 17169 ft | 403 kts | 138° |
| 2026-04-24 00:44 | 48.70425 | 15.83552 | 17172 ft | 403 kts | 138° |
| 2026-04-24 00:44 | 48.68223 | 15.86173 | 17171 ft | 403 kts | 138° |
| 2026-04-24 00:44 | 48.66018 | 15.88792 | 17168 ft | 403 kts | 138° |
| 2026-04-24 00:44 | 48.63843 | 15.91375 | 17163 ft | 403 kts | 138° |
| 2026-04-24 00:45 | 48.61639 | 15.93986 | 17165 ft | 403 kts | 139° |
| 2026-04-24 00:45 | 48.59434 | 15.96596 | 17161 ft | 403 kts | 139° |
| 2026-04-24 00:45 | 48.57222 | 15.99211 | 17157 ft | 403 kts | 139° |
| 2026-04-24 00:45 | 48.55017 | 16.01811 | 17154 ft | 403 kts | 139° |
| 2026-04-24 00:46 | 48.52806 | 16.04422 | 17163 ft | 403 kts | 139° |
| 2026-04-24 00:46 | 48.50636 | 16.07095 | 17146 ft | 401 kts | 133° |
| 2026-04-24 00:46 | 48.48924 | 16.10336 | 17146 ft | 392 kts | 115° |
| 2026-04-24 00:46 | 48.47978 | 16.14117 | 17147 ft | 382 kts | 96° |
| 2026-04-24 00:47 | 48.47714 | 16.18053 | 17157 ft | 377 kts | 87° |
| 2026-04-24 00:47 | 48.47606 | 16.21996 | 17160 ft | 375 kts | 87° |
| 2026-04-24 00:47 | 48.47491 | 16.25960 | 17150 ft | 381 kts | 87° |
| 2026-04-24 00:47 | 48.47354 | 16.29904 | 16613 ft | 376 kts | 88° |
| 2026-04-24 00:48 | 48.47206 | 16.33842 | 15895 ft | 376 kts | 88° |
| 2026-04-24 00:48 | 48.47049 | 16.37761 | 15259 ft | 374 kts | 88° |
| 2026-04-24 00:48 | 48.46892 | 16.41658 | 14644 ft | 371 kts | 88° |
| 2026-04-24 00:48 | 48.46735 | 16.45531 | 14036 ft | 369 kts | 88° |
| 2026-04-24 00:49 | 48.46428 | 16.49360 | 13435 ft | 370 kts | 98° |
| 2026-04-24 00:49 | 48.45483 | 16.52992 | 12827 ft | 376 kts | 116° |
| 2026-04-24 00:49 | 48.43832 | 16.56072 | 12215 ft | 380 kts | 135° |
| 2026-04-24 00:49 | 48.41625 | 16.58266 | 11608 ft | 382 kts | 154° |
| 2026-04-24 00:50 | 48.39127 | 16.59565 | 11110 ft | 378 kts | 164° |
| 2026-04-24 00:50 | 48.37459 | 16.60215 | 10912 ft | 370 kts | 166° |
| 2026-04-24 00:50 | 48.35001 | 16.61156 | 10687 ft | 358 kts | 165° |
| 2026-04-24 00:50 | 48.31888 | 16.62408 | 10448 ft | 341 kts | 165° |
| 2026-04-24 00:51 | 48.29638 | 16.63338 | 10283 ft | 330 kts | 165° |
| 2026-04-24 00:51 | 48.27463 | 16.64245 | 10107 ft | 319 kts | 165° |
| 2026-04-24 00:51 | 48.25342 | 16.65131 | 9777 ft | 314 kts | 165° |
| 2026-04-24 00:51 | 48.23243 | 16.66010 | 9390 ft | 312 kts | 165° |
| 2026-04-24 00:52 | 48.21831 | 16.66601 | 9118 ft | 310 kts | 165° |
| 2026-04-24 00:52 | 48.19781 | 16.67458 | 8755 ft | 308 kts | 165° |
| 2026-04-24 00:52 | 48.17729 | 16.68315 | 8359 ft | 305 kts | 165° |
| 2026-04-24 00:52 | 48.15687 | 16.69170 | 7975 ft | 303 kts | 165° |
| 2026-04-24 00:53 | 48.13665 | 16.70016 | 7591 ft | 301 kts | 165° |
| 2026-04-24 00:53 | 48.11651 | 16.70858 | 7222 ft | 299 kts | 165° |
| 2026-04-24 00:53 | 48.09654 | 16.71693 | 6848 ft | 297 kts | 165° |
| 2026-04-24 00:53 | 48.07669 | 16.72517 | 6485 ft | 295 kts | 165° |
| 2026-04-24 00:54 | 48.05701 | 16.73334 | 6102 ft | 293 kts | 164° |
| 2026-04-24 00:54 | 48.03743 | 16.74146 | 5735 ft | 290 kts | 164° |
| 2026-04-24 00:54 | 48.01803 | 16.74951 | 5366 ft | 289 kts | 164° |
| 2026-04-24 00:54 | 47.99877 | 16.75751 | 4968 ft | 287 kts | 165° |
| 2026-04-24 00:55 | 47.97948 | 16.76548 | 4571 ft | 287 kts | 165° |
| 2026-04-24 00:55 | 47.96018 | 16.77347 | 4137 ft | 288 kts | 165° |
| 2026-04-24 00:55 | 47.94084 | 16.78059 | 3830 ft | 283 kts | 175° |
| 2026-04-24 00:55 | 47.92189 | 16.77792 | 3675 ft | 267 kts | 202° |
| 2026-04-24 00:56 | 47.90680 | 16.76442 | 3559 ft | 245 kts | 230° |
| 2026-04-24 00:56 | 47.89787 | 16.74436 | 3288 ft | 231 kts | 252° |
| 2026-04-24 00:56 | 47.89305 | 16.72217 | 3026 ft | 218 kts | 270° |
| 2026-04-24 00:56 | 47.89423 | 16.70123 | 2943 ft | 191 kts | 294° |
| 2026-04-24 00:57 | 47.90040 | 16.68447 | 2948 ft | 183 kts | 314° |
| 2026-04-24 00:57 | 47.91006 | 16.67256 | 2970 ft | 180 kts | 331° |
| 2026-04-24 00:57 | 47.93259 | 16.65703 | 2985 ft | 179 kts | 341° |
| 2026-04-24 00:58 | 47.94456 | 16.65203 | 2988 ft | 179 kts | 343° |
| 2026-04-24 00:58 | 47.95656 | 16.64699 | 2996 ft | 180 kts | 343° |
| 2026-04-24 00:58 | 47.96852 | 16.64197 | 2951 ft | 173 kts | 343° |
| 2026-04-24 00:58 | 47.97959 | 16.63732 | 2840 ft | 160 kts | 343° |
| 2026-04-24 00:59 | 47.99009 | 16.63289 | 2623 ft | 154 kts | 342° |
| 2026-04-24 00:59 | 48.00017 | 16.62865 | 2399 ft | 146 kts | 342° |
| 2026-04-24 00:59 | 48.00970 | 16.62463 | 2194 ft | 142 kts | 342° |
| 2026-04-24 00:59 | 48.01916 | 16.62064 | 2012 ft | 143 kts | 342° |
| 2026-04-24 01:00 | 48.02849 | 16.61672 | 1856 ft | 130 kts | 342° |
| 2026-04-24 01:00 | 48.03717 | 16.61304 | 1678 ft | 130 kts | 341° |
| 2026-04-24 01:00 | 48.04585 | 16.60936 | 1486 ft | 129 kts | 341° |
| 2026-04-24 01:00 | 48.05448 | 16.60566 | 1308 ft | 129 kts | 342° |
| 2026-04-24 01:01 | 48.06319 | 16.60214 | 1153 ft | 130 kts | 342° |
| 2026-04-24 01:01 | 48.07186 | 16.59838 | 984 ft | 130 kts | 341° |
| 2026-04-24 01:01 | 48.08057 | 16.59476 | 783 ft | 130 kts | 341° |
| 2026-04-24 01:01 | 48.08931 | 16.59104 | 665 ft | 131 kts | 342° |
| 2026-04-24 01:02 | 48.09767 | 16.58743 | 617 ft | 109 kts | 349° |
| 2026-04-24 01:02 | 48.10299 | 16.58528 | 622 ft | 51 kts | 343° |
| 2026-04-24 01:02 | 48.10607 | 16.58399 | 615 ft | 45 kts | 343° |
| 2026-04-24 01:02 | 48.10864 | 16.58288 | 618 ft | 30 kts | 344° |
| 2026-04-24 01:03 | 48.11001 | 16.58162 | 623 ft | 23 kts | 305° |
| 2026-04-24 01:03 | 48.11077 | 16.57963 | 621 ft | 21 kts | 296° |
| 2026-04-24 01:03 | 48.11142 | 16.57764 | 625 ft | 21 kts | 296° |
| 2026-04-24 01:03 | 48.11208 | 16.57560 | 618 ft | 23 kts | 296° |
| 2026-04-24 01:04 | 48.11280 | 16.57340 | 621 ft | 24 kts | 296° |
| 2026-04-24 01:04 | 48.11356 | 16.57106 | 615 ft | 26 kts | 296° |
| 2026-04-24 01:04 | 48.11438 | 16.56855 | 622 ft | 27 kts | 296° |
| 2026-04-24 01:04 | 48.11516 | 16.56614 | 622 ft | 26 kts | 296° |
| 2026-04-24 01:05 | 48.11590 | 16.56387 | 619 ft | 20 kts | 296° |
| 2026-04-24 01:05 | 48.11643 | 16.56257 | 624 ft | 13 kts | 328° |
| 2026-04-24 01:05 | 48.11730 | 16.56212 | 619 ft | 12 kts | 343° |
| 2026-04-24 01:05 | 48.11769 | 16.56195 | 617 ft | 4 kts | 343° |
| 2026-04-24 01:06 | 48.11777 | 16.56191 | 615 ft | 0 kts | 342° |
| 2026-04-24 01:06 | 48.11781 | 16.56189 | 615 ft | 0 kts | 343° |